Terminal Aerodrome Forecast
Issued by NWS

Home | Current Version | Previous Version | Text Only | Print | Product List | Glossary On
Versions: 1 2 3 4 5 6 7 8 9 10 11 12 13 14 15 16 17 18 19
000
FTUS46 KLOX 020400 AAA
TAFSBP
TAF AMD
KSBP 020446Z 0205/0224 VRB03KT P6SM OVC007
     FM021600 VRB03KT P6SM BKN012
     FM021900 30012KT P6SM SKC=

USA.gov is the U.S. government's official web portal to all federal, state and local government web resources and services.